地図

経路データ

SID SEASON NUMBER BASIN SUBBASIN NAME ISO_TIME NATURE LAT LON WMO_WIND WMO_PRES WMO_AGENCY TRACK_TYPE DIST2LAND LANDFALL IFLAG USA_AGENCY USA_ATCF_ID USA_LAT USA_LON USA_RECORD USA_STATUS USA_WIND USA_PRES USA_SSHS USA_R34_NE USA_R34_SE USA_R34_SW USA_R34_NW USA_R50_NE USA_R50_SE USA_R50_SW USA_R50_NW USA_R64_NE USA_R64_SE USA_R64_SW USA_R64_NW USA_POCI USA_ROCI USA_RMW USA_EYE TOKYO_LAT TOKYO_LON TOKYO_GRADE TOKYO_WIND TOKYO_PRES TOKYO_R50_DIR TOKYO_R50_LONG TOKYO_R50_SHORT TOKYO_R30_DIR TOKYO_R30_LONG TOKYO_R30_SHORT TOKYO_LAND CMA_LAT CMA_LON CMA_CAT CMA_WIND CMA_PRES HKO_LAT HKO_LON HKO_CAT HKO_WIND HKO_PRES NEWDELHI_LAT NEWDELHI_LON NEWDELHI_GRADE NEWDELHI_WIND NEWDELHI_PRES NEWDELHI_CI NEWDELHI_DP NEWDELHI_POCI REUNION_LAT REUNION_LON REUNION_TYPE REUNION_WIND REUNION_PRES REUNION_TNUM REUNION_CI REUNION_RMW REUNION_R34_NE REUNION_R34_SE REUNION_R34_SW REUNION_R34_NW REUNION_R50_NE REUNION_R50_SE REUNION_R50_SW REUNION_R50_NW REUNION_R64_NE REUNION_R64_SE REUNION_R64_SW REUNION_R64_NW BOM_LAT BOM_LON BOM_TYPE BOM_WIND BOM_PRES BOM_TNUM BOM_CI BOM_RMW BOM_R34_NE BOM_R34_SE BOM_R34_SW BOM_R34_NW BOM_R50_NE BOM_R50_SE BOM_R50_SW BOM_R50_NW BOM_R64_NE BOM_R64_SE BOM_R64_SW BOM_R64_NW BOM_ROCI BOM_POCI BOM_EYE BOM_POS_METHOD BOM_PRES_METHOD NADI_LAT NADI_LON NADI_CAT NADI_WIND NADI_PRES WELLINGTON_LAT WELLINGTON_LON WELLINGTON_WIND WELLINGTON_PRES DS824_LAT DS824_LON DS824_STAGE DS824_WIND DS824_PRES TD9636_LAT TD9636_LON TD9636_STAGE TD9636_WIND TD9636_PRES TD9635_LAT TD9635_LON TD9635_WIND TD9635_PRES TD9635_ROCI NEUMANN_LAT NEUMANN_LON NEUMANN_CLASS NEUMANN_WIND NEUMANN_PRES MLC_LAT MLC_LON MLC_CLASS MLC_WIND MLC_PRES USA_GUST BOM_GUST BOM_GUST_PER REUNION_GUST REUNION_GUST_PER USA_SEAHGT USA_SEARAD_NE USA_SEARAD_SE USA_SEARAD_SW USA_SEARAD_NW STORM_SPEED STORM_DIR
1862052S23092 1862 7 SI WA NOT_NAMED 1862-02-21 06:00:00 NR -23.4000 91.5000 main 2217 2217 _____O________ -1 -23.4000 91.5000 99 9.90000 1 267
1862052S23092 1862 7 SI WA NOT_NAMED 1862-02-21 09:00:00 NR -23.4018 91.4529 main 2217 2217 _____P________ -1 -23.4018 91.4529 99 1 265
1862052S23092 1862 7 SI WA NOT_NAMED 1862-02-21 12:00:00 NR -23.4084 91.3901 main 2227 2227 _____P________ -1 -23.4084 91.3901 99 1 261
1862052S23092 1862 7 SI WA NOT_NAMED 1862-02-21 15:00:00 NR -23.4242 91.2960 main 2237 2237 _____P________ -1 -23.4242 91.2960 99 2 258
1862052S23092 1862 7 SI WA NOT_NAMED 1862-02-21 18:00:00 NR -23.4540 91.1547 main 2245 2245 _____P________ -1 -23.4540 91.1547 99 3 256
1862052S23092 1862 7 SI WA NOT_NAMED 1862-02-21 21:00:00 NR -23.5021 90.9506 main 2265 2265 _____P________ -1 -23.5021 90.9506 99 5 255
1862052S23092 1862 7 SI WA NOT_NAMED 1862-02-22 00:00:00 NR -23.5732 90.6675 main 2292 2292 _____P________ -1 -23.5732 90.6675 99 6 254
1862052S23092 1862 7 SI WA NOT_NAMED 1862-02-22 03:00:00 NR -23.6711 90.2895 main 2330 2330 _____P________ -1 -23.6711 90.2895 99 8 254
1862052S23092 1862 7 SI MM NOT_NAMED 1862-02-22 06:00:00 NR -23.8000 89.8000 main 2378 2378 _____O________ -1 -23.8000 89.8000 99 9.90000 10 254
1862052S23092 1862 7 SI MM NOT_NAMED 1862-02-22 09:00:00 NR -23.9611 89.1901 main 2433 2433 _____P________ -1 -23.9611 89.1901 99 13 254
1862052S23092 1862 7 SI MM NOT_NAMED 1862-02-22 12:00:00 NR -24.1469 88.4820 main 2501 2501 _____P________ -1 -24.1469 88.4820 99 14 254
1862052S23092 1862 7 SI MM NOT_NAMED 1862-02-22 15:00:00 NR -24.3483 87.7060 main 2577 2575 _____P________ -1 -24.3483 87.7060 99 15 254
1862052S23092 1862 7 SI MM NOT_NAMED 1862-02-22 18:00:00 NR -24.5564 86.8928 main 2650 2650 _____P________ -1 -24.5564 86.8928 99 15 254
1862052S23092 1862 7 SI MM NOT_NAMED 1862-02-22 21:00:00 NR -24.7628 86.0739 main 2726 2726 _____P________ -1 -24.7628 86.0739 99 15 255
1862052S23092 1862 7 SI MM NOT_NAMED 1862-02-23 00:00:00 NR -24.9601 85.2807 main 2802 2795 _____P________ -1 -24.9601 85.2807 99 14 255
1862052S23092 1862 7 SI MM NOT_NAMED 1862-02-23 03:00:00 NR -25.1412 84.5454 main 2784 2727 _____P________ -1 -25.1412 84.5454 99 13 255
1862052S23092 1862 7 SI MM NOT_NAMED 1862-02-23 06:00:00 NR -25.3000 83.9000 main 2727 2678 _____O________ -1 -25.3000 83.9000 99 9.90000 11 255
1862052S23092 1862 7 SI MM NOT_NAMED 1862-02-23 09:00:00 NR -25.4323 83.3689 main 2678 2640 _____P________ -1 -25.4323 83.3689 99 9 254
1862052S23092 1862 7 SI MM NOT_NAMED 1862-02-23 12:00:00 NR -25.5407 82.9450 main 2630 2602 _____P________ -1 -25.5407 82.9450 99 7 254
1862052S23092 1862 7 SI MM NOT_NAMED 1862-02-23 15:00:00 NR -25.6295 82.6132 main 2602 2583 _____P________ -1 -25.6295 82.6132 99 6 253
1862052S23092 1862 7 SI MM NOT_NAMED 1862-02-23 18:00:00 NR -25.7023 82.3583 main 2583 2564 _____P________ -1 -25.7023 82.3583 99 4 252
1862052S23092 1862 7 SI MM NOT_NAMED 1862-02-23 21:00:00 NR -25.7625 82.1648 main 2565 2545 _____P________ -1 -25.7625 82.1648 99 3 250
1862052S23092 1862 7 SI MM NOT_NAMED 1862-02-24 00:00:00 NR -25.8135 82.0176 main 2545 2536 _____P________ -1 -25.8134 82.0176 99 3 248
1862052S23092 1862 7 SI MM NOT_NAMED 1862-02-24 03:00:00 NR -25.8583 81.9011 main 2537 2527 _____P________ -1 -25.8583 81.9011 99 2 246
1862052S23092 1862 7 SI MM NOT_NAMED 1862-02-24 06:00:00 NR -25.9000 81.8000 main 2527 _____O________ -1 -25.9000 81.8000 99 9.90000 2 244

IBTrACS Databaseについて

本データベースは、米国NOAAが公開する1842年以降の世界の熱帯低気圧のベストトラックデータアーカイブInternational Best Track Archive for Climate Stewardship (IBTrACS)を、ウェブで閲覧しやすい形式に変換したものです。

最終更新日:2021-10-25